createdAt,value
2023-05-10T00:04:04.423Z,9.20
2023-05-10T00:09:07.600Z,9.50
2023-05-10T00:14:10.500Z,7.50
2023-05-10T00:19:13.361Z,8.40
2023-05-10T00:24:16.202Z,9.30
2023-05-10T00:29:19.051Z,8.70
2023-05-10T00:34:21.954Z,9.20
2023-05-10T00:39:24.816Z,8.60
2023-05-10T00:44:27.672Z,9.30
2023-05-10T00:49:31.122Z,8.50
2023-05-10T00:59:36.803Z,7.10
2023-05-10T01:04:40.596Z,8.90
2023-05-10T01:09:43.491Z,7.20
2023-05-10T01:14:46.983Z,7.20
2023-05-10T01:19:51.120Z,7.30
2023-05-10T01:25:00.196Z,7.10
2023-05-10T01:30:15.912Z,7.50
2023-05-10T01:35:39.480Z,8.40
2023-05-10T01:41:00.909Z,9.50
2023-05-10T01:46:12.125Z,7.10
2023-05-10T01:51:24.051Z,7.30
2023-05-10T01:56:29.343Z,7.00
2023-05-10T02:01:34.719Z,7.60
2023-05-10T02:06:39.640Z,7.30
2023-05-10T02:11:45.182Z,7.90
2023-05-10T02:16:50.051Z,7.50
2023-05-10T02:21:53.628Z,7.10
2023-05-10T02:26:58.374Z,7.80
2023-05-10T02:32:02.697Z,7.80
2023-05-10T02:37:07.180Z,7.70
2023-05-10T02:42:15.130Z,7.10
2023-05-10T02:47:19.800Z,7.10
2023-05-10T02:52:27.448Z,7.30
2023-05-10T02:57:34.926Z,7.20
2023-05-10T03:02:38.027Z,6.60
2023-05-10T03:07:41.105Z,6.90
2023-05-10T03:13:12.270Z,8.10
2023-05-10T03:18:22.500Z,6.60
2023-05-10T03:23:31.314Z,6.70
2023-05-10T03:28:35.910Z,6.60
2023-05-10T03:33:50.456Z,7.00
2023-05-10T03:38:53.376Z,7.80
2023-05-10T03:43:56.230Z,7.60
2023-05-10T03:48:59.101Z,7.90
2023-05-10T03:54:02.142Z,8.40
2023-05-10T03:59:08.502Z,9.60
2023-05-10T04:04:11.565Z,10.10
2023-05-10T04:09:15.162Z,9.70
2023-05-10T04:14:18.056Z,11.00
2023-05-10T04:19:21.429Z,10.40
2023-05-10T04:24:24.613Z,9.70
2023-05-10T04:29:29.730Z,8.40
2023-05-10T04:34:35.973Z,8.00
2023-05-10T04:39:42.188Z,7.30
2023-05-10T04:44:45.867Z,8.20
2023-05-10T04:49:48.713Z,7.10
2023-05-10T04:54:51.959Z,7.60
2023-05-10T05:04:59.014Z,7.10
2023-05-10T05:10:01.886Z,6.90
2023-05-10T05:15:05.548Z,7.40
2023-05-10T05:20:10.520Z,5.90
2023-05-10T05:25:13.860Z,6.10
2023-05-10T05:30:16.978Z,6.80
2023-05-10T05:35:20.042Z,6.70
2023-05-10T05:40:23.441Z,6.30
2023-05-10T05:45:26.378Z,7.20
2023-05-10T05:50:29.233Z,5.60
2023-05-10T05:55:32.696Z,6.10
2023-05-10T06:00:35.886Z,5.50
2023-05-10T06:10:42.423Z,5.50
2023-05-10T06:15:45.400Z,5.30
2023-05-10T06:20:48.263Z,4.90
2023-05-10T06:25:51.194Z,5.40
2023-05-10T06:30:54.189Z,5.50
2023-05-10T06:35:57.136Z,5.20
2023-05-10T06:41:01.258Z,5.10
2023-05-10T06:46:04.569Z,5.00
2023-05-10T06:51:07.648Z,4.90
2023-05-10T06:56:10.495Z,6.20
2023-05-10T07:01:14.021Z,5.20
2023-05-10T07:06:29.430Z,4.80
2023-05-10T07:11:36.570Z,4.70
2023-05-10T07:16:40.154Z,4.30
2023-05-10T07:21:45.358Z,4.30
2023-05-10T07:26:49.399Z,4.20
2023-05-10T07:31:52.487Z,4.40
2023-05-10T07:41:59.929Z,4.50
2023-05-10T07:47:03.842Z,4.30
2023-05-10T07:52:06.758Z,3.80
2023-05-10T08:02:12.495Z,4.30
2023-05-10T08:07:15.366Z,3.70
2023-05-10T08:12:18.244Z,4.30
2023-05-10T08:17:23.472Z,3.80
2023-05-10T08:22:28.494Z,4.70
2023-05-10T08:27:31.348Z,3.80
2023-05-10T08:32:34.310Z,4.80
2023-05-10T08:37:37.253Z,4.20
2023-05-10T08:42:44.067Z,5.20
2023-05-10T08:47:48.134Z,4.30
2023-05-10T08:52:55.142Z,4.00
2023-05-10T08:57:58.207Z,3.90
2023-05-10T09:03:02.133Z,4.90
2023-05-10T09:08:06.983Z,3.70
2023-05-10T09:13:11.555Z,3.70
2023-05-10T09:18:14.673Z,3.60
2023-05-10T09:23:17.614Z,3.90
2023-05-10T09:28:20.531Z,4.00
2023-05-10T09:33:23.421Z,3.40
2023-05-10T09:38:27.795Z,4.40
2023-05-10T09:43:39.012Z,5.00
2023-05-10T09:48:47.302Z,4.90
2023-05-10T09:54:10.620Z,4.70
2023-05-10T09:59:14.005Z,4.20
2023-05-10T10:04:17.262Z,4.30
2023-05-10T10:09:20.292Z,3.40
2023-05-10T10:14:24.968Z,4.20
2023-05-10T10:19:27.910Z,4.10
2023-05-10T10:24:30.886Z,4.30
2023-05-10T10:29:42.310Z,4.20
2023-05-10T10:34:45.248Z,3.80
2023-05-10T10:39:50.689Z,4.40
2023-05-10T10:45:13.282Z,4.30
2023-05-10T10:50:17.507Z,4.40
2023-05-10T10:55:26.059Z,4.60
2023-05-10T11:00:34.084Z,3.70
2023-05-10T11:05:41.594Z,4.40
2023-05-10T11:11:11.223Z,4.10
2023-05-10T11:16:16.636Z,3.90
2023-05-10T11:21:19.951Z,4.10
2023-05-10T11:26:26.274Z,4.20
2023-05-10T11:31:29.892Z,4.30
2023-05-10T11:36:37.407Z,4.40
2023-05-10T11:41:42.897Z,4.10
2023-05-10T11:46:45.983Z,4.00
2023-05-10T11:51:55.345Z,3.20
2023-05-10T11:56:58.177Z,4.00
2023-05-10T12:02:01.298Z,3.40
2023-05-10T12:07:04.468Z,3.30
2023-05-10T12:12:07.772Z,3.90
2023-05-10T12:17:14.506Z,3.60
2023-05-10T12:22:23.323Z,4.00
2023-05-10T12:27:41.613Z,3.90
2023-05-10T12:32:45.370Z,3.50
2023-05-10T12:37:49.007Z,4.00
2023-05-10T12:42:51.923Z,3.70
2023-05-10T12:47:54.908Z,3.90
2023-05-10T12:52:58.110Z,3.30
2023-05-10T12:58:01.230Z,3.70
2023-05-10T13:03:06.216Z,3.20
2023-05-10T13:08:09.025Z,3.30
2023-05-10T13:13:11.882Z,3.50
2023-05-10T13:18:14.690Z,4.20
2023-05-10T13:23:17.544Z,3.30
2023-05-10T13:28:20.516Z,3.90
2023-05-10T13:33:23.279Z,4.00
2023-05-10T13:38:26.829Z,3.60
2023-05-10T13:43:30.494Z,3.50
2023-05-10T13:48:33.272Z,3.40
2023-05-10T13:53:36.038Z,3.40
2023-05-10T13:58:38.839Z,3.20
2023-05-10T14:03:41.725Z,3.60
2023-05-10T14:08:44.774Z,3.00
2023-05-10T14:13:47.515Z,3.10
2023-05-10T14:18:50.387Z,4.40
2023-05-10T14:23:53.317Z,3.30
2023-05-10T14:28:56.201Z,3.30
2023-05-10T14:34:00.272Z,3.30
2023-05-10T14:39:03.942Z,3.20
2023-05-10T14:44:06.739Z,3.50
2023-05-10T14:49:09.632Z,3.20
2023-05-10T14:54:12.467Z,3.80
2023-05-10T14:59:15.328Z,3.50
2023-05-10T15:04:18.582Z,3.10
2023-05-10T15:09:21.860Z,3.30
2023-05-10T15:14:24.715Z,3.50
2023-05-10T15:19:27.490Z,3.20
2023-05-10T15:24:30.917Z,3.60
2023-05-10T15:29:35.345Z,3.40
2023-05-10T15:34:38.179Z,3.40
2023-05-10T15:39:41.009Z,3.70
2023-05-10T15:44:45.553Z,3.30
2023-05-10T15:49:48.560Z,4.10
2023-05-10T15:54:51.942Z,3.70
2023-05-10T15:59:54.818Z,4.70
2023-05-10T16:04:57.698Z,3.60
2023-05-10T16:10:04.145Z,3.50
2023-05-10T16:15:07.832Z,3.50
2023-05-10T16:20:11.220Z,3.30
2023-05-10T16:25:14.303Z,3.20
2023-05-10T16:30:17.276Z,3.70
2023-05-10T16:35:20.220Z,4.50
2023-05-10T16:40:24.099Z,3.80
2023-05-10T16:45:27.051Z,4.10
2023-05-10T16:50:29.902Z,3.70
2023-05-10T16:55:32.734Z,3.80
2023-05-10T17:00:36.395Z,3.40
2023-05-10T17:05:39.209Z,3.80
2023-05-10T17:10:42.085Z,3.50
2023-05-10T17:15:47.448Z,3.70
2023-05-10T17:20:50.864Z,3.60
2023-05-10T17:25:53.652Z,3.90
2023-05-10T17:31:00.217Z,4.30
2023-05-10T17:36:03.860Z,3.90
2023-05-10T17:41:06.731Z,4.00
2023-05-10T17:46:09.687Z,3.70
2023-05-10T17:51:12.796Z,3.90
2023-05-10T17:56:15.629Z,3.80
2023-05-10T18:01:18.590Z,3.60
2023-05-10T18:06:21.539Z,4.00
2023-05-10T18:11:24.404Z,3.80
2023-05-10T18:16:27.244Z,5.30
2023-05-10T18:21:30.046Z,4.30
2023-05-10T18:26:32.870Z,4.90
2023-05-10T18:36:38.773Z,4.10
2023-05-10T18:46:44.633Z,3.60
2023-05-10T18:51:47.506Z,4.00
2023-05-10T18:56:50.324Z,3.80
2023-05-10T19:01:54.893Z,5.70
2023-05-10T19:07:01.044Z,4.10
2023-05-10T19:12:03.992Z,7.10
2023-05-10T19:17:09.802Z,16.20
2023-05-10T19:22:13.451Z,9.10
2023-05-10T19:27:16.879Z,6.30
2023-05-10T19:32:19.818Z,8.10
2023-05-10T19:37:22.770Z,8.70
2023-05-10T19:42:25.642Z,10.70
2023-05-10T19:47:28.623Z,17.60
2023-05-10T19:52:31.467Z,11.80
2023-05-10T19:57:34.377Z,12.00
2023-05-10T20:02:37.244Z,18.30
2023-05-10T20:07:40.136Z,15.70
2023-05-10T20:12:52.239Z,17.20
2023-05-10T20:17:55.644Z,15.10
2023-05-10T20:22:58.547Z,13.90
2023-05-10T20:28:01.423Z,11.00
2023-05-10T20:33:04.490Z,10.40
2023-05-10T20:43:10.763Z,11.70
2023-05-10T20:48:13.714Z,15.30
2023-05-10T20:53:18.606Z,13.10
2023-05-10T20:58:21.567Z,10.70
2023-05-10T21:03:24.414Z,10.80
2023-05-10T21:08:27.271Z,12.30
2023-05-10T21:13:30.345Z,11.10
2023-05-10T21:18:33.493Z,10.30
2023-05-10T21:23:36.350Z,10.80
2023-05-10T21:28:40.208Z,11.00
2023-05-10T21:33:43.568Z,12.90
2023-05-10T21:43:49.612Z,15.10
2023-05-10T21:48:52.392Z,16.70
2023-05-10T21:53:55.263Z,11.20
2023-05-10T21:58:58.083Z,11.50
2023-05-10T22:09:05.197Z,9.50
2023-05-10T22:14:08.088Z,8.50
2023-05-10T22:19:10.893Z,9.00
2023-05-10T22:24:13.827Z,8.30
2023-05-10T22:29:17.144Z,8.50
2023-05-10T22:39:23.656Z,8.60
2023-05-10T22:44:26.485Z,8.10
2023-05-10T22:49:29.383Z,8.50
2023-05-10T22:54:33.750Z,8.90
2023-05-10T22:59:38.620Z,8.70
2023-05-10T23:04:41.506Z,8.00
2023-05-10T23:09:44.381Z,7.90
2023-05-10T23:14:47.765Z,6.80
2023-05-10T23:19:50.593Z,6.80
2023-05-10T23:24:53.388Z,6.90
2023-05-10T23:29:56.831Z,7.30
2023-05-10T23:34:59.595Z,6.10
2023-05-10T23:40:03.241Z,6.60
2023-05-10T23:45:06.799Z,5.90
2023-05-10T23:50:10.251Z,5.50
2023-05-10T23:55:13.177Z,5.90
